Time;durP1;ratioP1;P1;durP2;ratioP2;P2;SDS_P1;SDS_P2;PMS_P1;PMS_P2;Temp;Humidity;BMP_temperature;BMP_pressure;BME280_temperature;BME280_humidity;BME280_pressure;Samples;Min_cycle;Max_cycle;Signal;HPM_P1;HPM_P2
2022/09/21 00:01:16;;;;;;;2.45;0.90;;;9.70;99.90;;;;;;6210903;23;20036;-77
2022/09/21 00:03:43;;;;;;;4.43;0.85;;;9.70;99.90;;;;;;6211154;23;20110;-78
2022/09/21 00:06:13;;;;;;;6.43;0.80;;;9.60;99.90;;;;;;6186072;23;20017;-79
2022/09/21 00:08:39;;;;;;;4.35;0.80;;;9.60;99.90;;;;;;6212728;23;20024;-77
2022/09/21 00:11:06;;;;;;;4.85;0.80;;;9.60;99.90;;;;;;6213215;23;20091;-76
2022/09/21 00:13:33;;;;;;;2.83;1.10;;;9.60;99.90;;;;;;6212730;23;20095;-77
2022/09/21 00:16:00;;;;;;;6.53;0.88;;;9.50;99.90;;;;;;6186442;23;20025;-76
2022/09/21 00:18:26;;;;;;;6.53;1.08;;;9.50;99.90;;;;;;6211522;23;20400;-77
2022/09/21 00:20:52;;;;;;;8.35;2.22;;;9.50;99.90;;;;;;6211223;23;20103;-77
2022/09/21 00:23:19;;;;;;;12.00;1.83;;;9.50;99.90;;;;;;6213010;23;20067;-77
2022/09/21 00:25:45;;;;;;;10.07;3.60;;;9.50;99.90;;;;;;6212848;23;20024;-77
2022/09/21 00:28:11;;;;;;;6.25;1.55;;;9.50;99.90;;;;;;6211275;23;20472;-77
2022/09/21 00:30:38;;;;;;;6.32;2.20;;;9.50;99.90;;;;;;6211675;23;20035;-77
2022/09/21 00:33:04;;;;;;;6.22;1.70;;;9.50;99.90;;;;;;6210867;23;20024;-77
2022/09/21 00:35:30;;;;;;;9.70;1.55;;;9.50;99.90;;;;;;6213164;23;20793;-77
2022/09/21 00:38:00;;;;;;;12.98;2.33;;;9.50;99.90;;;;;;6212492;23;20024;-77
2022/09/21 00:40:26;;;;;;;9.13;3.63;;;9.40;99.90;;;;;;6210864;23;20021;-77
2022/09/21 00:42:52;;;;;;;10.25;3.15;;;9.50;99.90;;;;;;6212438;23;20028;-77
2022/09/21 00:45:21;;;;;;;12.35;4.00;;;9.50;99.90;;;;;;6211456;23;20079;-76
2022/09/21 00:47:50;;;;;;;9.38;2.72;;;9.50;99.90;;;;;;6211610;23;20036;-77
2022/09/21 00:50:19;;;;;;;8.38;4.15;;;9.40;99.90;;;;;;6212766;23;20375;-77
2022/09/21 00:52:54;;;;;;;10.05;3.10;;;9.50;99.90;;;;;;6210959;23;20028;-77
2022/09/21 00:55:27;;;;;;;;;;;9.50;99.90;;;;;;6212890;23;20021;-77
2022/09/21 00:57:58;;;;;;;8.95;2.65;;;9.50;99.90;;;;;;6214732;23;19924;-77
2022/09/21 01:00:24;;;;;;;10.93;3.30;;;9.40;99.90;;;;;;6187518;23;20074;-76
2022/09/21 01:02:51;;;;;;;7.47;3.78;;;9.40;99.90;;;;;;6212644;23;20523;-77
2022/09/21 01:05:17;;;;;;;8.70;2.55;;;9.40;99.90;;;;;;6213936;23;20020;-77
2022/09/21 01:07:46;;;;;;;6.53;2.75;;;9.40;99.90;;;;;;6214750;23;20047;-77
2022/09/21 01:10:18;;;;;;;7.03;2.70;;;9.40;99.90;;;;;;6212760;23;20032;-76
2022/09/21 01:13:19;;;;;;;7.63;2.67;;;9.40;99.90;;;;;;6214282;23;20116;-76
2022/09/21 01:15:58;;;;;;;5.95;2.30;;;9.30;99.90;;;;;;6213660;23;20060;-76
2022/09/21 01:18:34;;;;;;;8.43;2.67;;;9.30;99.90;;;;;;6212562;23;20401;-78
2022/09/21 01:21:18;;;;;;;9.90;2.60;;;9.30;99.90;;;;;;6212762;23;20078;-77
2022/09/21 01:23:49;;;;;;;9.05;2.65;;;9.20;99.90;;;;;;6215648;23;20751;-77
2022/09/21 01:26:48;;;;;;;11.77;2.45;;;9.20;99.90;;;;;;6212510;23;20082;-77
2022/09/21 01:29:37;;;;;;;8.30;2.53;;;9.20;99.90;;;;;;6212310;23;20033;-77
2022/09/21 01:32:52;;;;;;;6.32;2.90;;;9.20;99.90;;;;;;6212343;23;20024;-76
2022/09/21 01:35:32;;;;;;;9.70;3.17;;;9.20;99.90;;;;;;6083314;23;20030;-77
2022/09/21 01:38:04;;;;;;;10.25;2.67;;;9.10;99.90;;;;;;6212830;23;20056;-77
2022/09/21 01:40:38;;;;;;;11.35;3.20;;;9.10;99.90;;;;;;6216448;23;20043;-79
2022/09/21 01:43:06;;;;;;;12.18;3.05;;;9.10;99.90;;;;;;6212932;23;20485;-77
2022/09/21 01:45:37;;;;;;;5.82;1.90;;;9.00;99.90;;;;;;6214265;23;20023;-78
2022/09/21 01:48:03;;;;;;;8.05;2.58;;;9.00;99.90;;;;;;6214103;23;20071;-76
2022/09/21 01:50:44;;;;;;;8.43;2.72;;;9.00;99.90;;;;;;6213906;23;20063;-77
2022/09/21 01:53:21;;;;;;;7.47;2.30;;;9.00;99.90;;;;;;6212458;23;20075;-77
2022/09/21 01:56:26;;;;;;;9.02;2.58;;;9.00;99.90;;;;;;6215360;23;20032;-77
2022/09/21 01:59:16;;;;;;;5.43;2.10;;;8.90;99.90;;;;;;6187497;23;20021;-77
2022/09/21 02:01:56;;;;;;;8.43;2.83;;;8.90;99.90;;;;;;6214030;23;20028;-77
2022/09/21 02:04:23;;;;;;;7.95;2.50;;;8.90;99.90;;;;;;6212525;23;20060;-77
2022/09/21 02:06:50;;;;;;;7.07;2.08;;;8.90;99.90;;;;;;6186587;23;20160;-78
2022/09/21 02:09:16;;;;;;;9.73;1.90;;;8.90;99.90;;;;;;6213736;23;20035;-78
2022/09/21 02:11:43;;;;;;;5.97;2.40;;;8.80;99.90;;;;;;6214927;23;20039;-78
2022/09/21 02:14:12;;;;;;;9.18;3.15;;;8.80;99.90;;;;;;6213790;23;20080;-78
2022/09/21 02:17:07;;;;;;;7.95;1.95;;;8.80;99.90;;;;;;6213978;23;20091;-77
2022/09/21 02:19:40;;;;;;;8.80;1.88;;;8.80;99.90;;;;;;6192479;23;20504;-77
2022/09/21 02:22:11;;;;;;;6.70;2.13;;;8.80;99.90;;;;;;6213111;23;20028;-79
2022/09/21 02:24:42;;;;;;;4.75;1.40;;;8.80;99.90;;;;;;6214215;23;20484;-78
2022/09/21 02:27:22;;;;;;;5.88;1.98;;;8.70;99.90;;;;;;6212238;23;20025;-78
2022/09/21 02:30:13;;;;;;;6.07;1.88;;;8.70;99.90;;;;;;6215014;23;20024;-77
2022/09/21 02:32:54;;;;;;;6.60;1.98;;;8.80;99.90;;;;;;6213859;23;20021;-78
2022/09/21 02:35:37;;;;;;;5.93;1.75;;;8.80;99.90;;;;;;6213987;23;20055;-79
2022/09/21 02:38:18;;;;;;;6.10;2.13;;;8.80;99.90;;;;;;6213189;23;20036;-78
2022/09/21 02:40:57;;;;;;;6.32;1.80;;;8.80;99.90;;;;;;6211679;23;20528;-78
2022/09/21 02:43:49;;;;;;;6.35;2.65;;;8.70;99.90;;;;;;6211447;23;20636;-77
2022/09/21 02:46:23;;;;;;;9.60;2.30;;;8.70;99.90;;;;;;6213943;23;20456;-77
2022/09/21 02:48:53;;;;;;;8.23;1.88;;;8.70;99.90;;;;;;6213348;23;20026;-77
2022/09/21 02:51:29;;;;;;;10.30;2.28;;;8.70;99.90;;;;;;6213625;23;20437;-79
2022/09/21 02:53:57;;;;;;;9.00;2.22;;;8.70;99.90;;;;;;6213834;23;20028;-77
2022/09/21 02:56:24;;;;;;;7.22;2.00;;;8.70;99.90;;;;;;6162419;23;20080;-77
2022/09/21 02:58:54;;;;;;;4.93;1.40;;;8.70;99.90;;;;;;6213614;23;20094;-78
2022/09/21 03:01:21;;;;;;;12.18;2.42;;;8.70;99.90;;;;;;6187419;23;20032;-77
2022/09/21 03:03:48;;;;;;;7.45;1.73;;;8.70;99.90;;;;;;6213666;23;20024;-77
2022/09/21 03:06:14;;;;;;;8.07;1.75;;;8.70;99.90;;;;;;6214418;23;20028;-78
2022/09/21 03:08:40;;;;;;;5.75;2.10;;;8.70;99.90;;;;;;6212588;23;20028;-77
2022/09/21 03:11:06;;;;;;;6.95;2.70;;;8.70;99.90;;;;;;6212491;23;20052;-78
2022/09/21 03:13:32;;;;;;;9.40;2.75;;;8.70;99.90;;;;;;6215038;23;20024;-79
2022/09/21 03:16:01;;;;;;;6.07;1.83;;;8.70;99.90;;;;;;6187899;23;20323;-79
2022/09/21 03:18:27;;;;;;;7.85;2.60;;;8.60;99.90;;;;;;6211378;23;20548;-79
2022/09/21 03:20:53;;;;;;;4.43;1.70;;;8.60;99.90;;;;;;6213262;23;20039;-78
2022/09/21 03:23:18;;;;;;;5.00;1.70;;;8.60;99.90;;;;;;6211694;23;20513;-77
2022/09/21 03:25:45;;;;;;;7.95;2.13;;;8.60;99.90;;;;;;6211708;23;20831;-79
2022/09/21 03:28:12;;;;;;;6.55;2.20;;;8.60;99.90;;;;;;6213012;23;20027;-78
2022/09/21 03:30:38;;;;;;;4.22;1.83;;;8.60;99.90;;;;;;6213082;23;20032;-77
2022/09/21 03:33:05;;;;;;;6.78;2.22;;;8.60;99.90;;;;;;6212773;23;20048;-79
2022/09/21 03:35:32;;;;;;;8.35;2.42;;;8.60;99.90;;;;;;6213056;23;20020;-77
2022/09/21 03:37:59;;;;;;;11.18;2.35;;;8.60;99.90;;;;;;6212820;23;20024;-77
2022/09/21 03:40:26;;;;;;;6.35;2.15;;;8.60;99.90;;;;;;6213282;23;20028;-78
2022/09/21 03:42:52;;;;;;;8.82;1.80;;;8.60;99.90;;;;;;6185819;23;20024;-77
2022/09/21 03:45:20;;;;;;;5.90;2.10;;;8.60;99.90;;;;;;6186321;23;20027;-78
2022/09/21 03:47:47;;;;;;;8.98;1.90;;;8.50;99.90;;;;;;6211280;23;20021;-79
2022/09/21 03:50:14;;;;;;;6.22;1.83;;;8.50;99.90;;;;;;6211003;23;20473;-77
2022/09/21 03:52:40;;;;;;;8.15;2.10;;;8.50;99.90;;;;;;6213216;23;20020;-76
2022/09/21 03:55:08;;;;;;;11.25;2.00;;;8.50;99.90;;;;;;6211721;23;20345;-77
2022/09/21 03:57:35;;;;;;;10.07;2.30;;;8.50;99.90;;;;;;6211676;23;20103;-78
2022/09/21 04:00:03;;;;;;;8.65;1.98;;;8.50;99.90;;;;;;6211369;23;20353;-77
2022/09/21 04:02:29;;;;;;;5.55;1.73;;;8.50;99.90;;;;;;6213103;23;20020;-77
2022/09/21 04:04:55;;;;;;;11.18;2.30;;;8.40;99.90;;;;;;6211513;23;20158;-77
2022/09/21 04:07:21;;;;;;;5.75;1.92;;;8.40;99.90;;;;;;6211197;23;20052;-78
2022/09/21 04:09:47;;;;;;;6.00;1.55;;;8.40;99.90;;;;;;6210916;23;20028;-77
2022/09/21 04:12:13;;;;;;;6.05;2.03;;;8.40;99.90;;;;;;6213064;23;20693;-76
2022/09/21 04:14:39;;;;;;;9.93;2.22;;;8.40;99.90;;;;;;6189060;23;20071;-79
2022/09/21 04:17:05;;;;;;;8.40;1.98;;;8.40;99.90;;;;;;6186388;23;20048;-76
2022/09/21 04:19:31;;;;;;;6.97;2.55;;;8.40;99.90;;;;;;6211138;23;20472;-76
2022/09/21 04:21:57;;;;;;;7.75;2.60;;;8.40;99.90;;;;;;6211198;23;20024;-76
2022/09/21 04:24:23;;;;;;;5.45;1.80;;;8.50;99.90;;;;;;6213134;23;20024;-76
2022/09/21 04:26:49;;;;;;;5.68;1.95;;;8.50;99.90;;;;;;6210821;23;20147;-75
2022/09/21 04:29:15;;;;;;;11.00;2.80;;;8.50;99.90;;;;;;6213402;23;20452;-75
2022/09/21 04:31:41;;;;;;;6.95;1.85;;;8.50;99.90;;;;;;6215109;23;20051;-77
2022/09/21 04:34:10;;;;;;;11.85;3.22;;;8.50;99.90;;;;;;6212581;23;20024;-79
2022/09/21 04:36:36;;;;;;;13.07;3.30;;;8.60;99.90;;;;;;6214810;23;20047;-78
2022/09/21 04:39:04;;;;;;;6.22;2.17;;;8.60;99.90;;;;;;6212830;23;20103;-77
2022/09/21 04:41:31;;;;;;;10.55;2.70;;;8.60;99.90;;;;;;6214837;23;20051;-78
2022/09/21 04:43:57;;;;;;;7.93;2.45;;;8.70;99.90;;;;;;6214879;23;20021;-77
2022/09/21 04:46:22;;;;;;;12.45;2.72;;;8.60;99.90;;;;;;6212773;23;20099;-77
2022/09/21 04:48:48;;;;;;;6.97;1.98;;;8.70;99.90;;;;;;6213263;23;20115;-78
2022/09/21 04:51:16;;;;;;;10.25;2.25;;;8.70;99.90;;;;;;6212880;23;20396;-78
2022/09/21 04:53:43;;;;;;;5.75;2.22;;;8.70;99.90;;;;;;6214453;23;20076;-78
2022/09/21 04:56:12;;;;;;;5.80;2.25;;;8.70;99.90;;;;;;6214685;23;20032;-78
2022/09/21 04:58:38;;;;;;;9.10;2.05;;;8.70;99.90;;;;;;6214367;23;20047;-77
2022/09/21 05:01:05;;;;;;;7.60;2.30;;;8.70;99.90;;;;;;6212643;23;20024;-78
2022/09/21 05:03:31;;;;;;;7.25;1.90;;;8.70;99.90;;;;;;6187833;23;20059;-78
2022/09/21 05:05:57;;;;;;;9.57;2.42;;;8.60;99.90;;;;;;6214852;23;20036;-78
2022/09/21 05:11:15;;;;;;;6.18;2.10;;;8.60;99.90;;;;;;6212850;23;20128;-79
2022/09/21 05:13:41;;;;;;;8.30;2.60;;;8.60;99.90;;;;;;6213997;23;20111;-78
2022/09/21 05:16:08;;;;;;;6.72;1.80;;;8.60;99.90;;;;;;6187473;23;20025;-78
2022/09/21 05:18:34;;;;;;;6.38;1.70;;;8.60;99.90;;;;;;6212599;23;20027;-78
2022/09/21 05:21:02;;;;;;;7.47;2.35;;;8.50;99.90;;;;;;6212945;23;20032;-78
2022/09/21 05:23:30;;;;;;;7.45;2.25;;;8.60;99.90;;;;;;6216195;23;20021;-78
2022/09/21 05:25:57;;;;;;;7.50;2.15;;;8.50;99.90;;;;;;6187511;23;20466;-77
2022/09/21 05:28:24;;;;;;;7.45;2.30;;;8.50;99.90;;;;;;6214244;23;20419;-78
2022/09/21 05:31:27;;;;;;;7.07;2.28;;;8.60;99.90;;;;;;6212463;23;20183;-77
2022/09/21 05:34:25;;;;;;;7.88;2.83;;;8.50;99.90;;;;;;6212418;23;20020;-77
2022/09/21 05:37:21;;;;;;;7.75;2.25;;;8.60;99.90;;;;;;6213114;23;20451;-78
2022/09/21 05:39:46;;;;;;;;;;;8.50;99.90;;;;;;6214411;23;20036;-77
2022/09/21 05:42:13;;;;;;;4.88;2.28;;;8.60;99.90;;;;;;6211882;23;19916;-78
2022/09/21 05:44:39;;;;;;;4.78;1.55;;;8.50;99.90;;;;;;6214342;23;20457;-77
2022/09/21 05:47:35;;;;;;;6.28;2.13;;;8.60;99.90;;;;;;6214408;23;20059;-78
2022/09/21 05:50:38;;;;;;;7.60;1.80;;;8.60;99.90;;;;;;6214190;23;20429;-78
2022/09/21 05:53:38;;;;;;;9.98;2.80;;;8.60;99.90;;;;;;6187347;23;20111;-77
2022/09/21 05:56:15;;;;;;;6.72;2.03;;;8.60;99.90;;;;;;6212992;23;20389;-77
2022/09/21 05:59:02;;;;;;;6.43;1.77;;;8.70;99.90;;;;;;6187426;23;20364;-77
2022/09/21 06:01:58;;;;;;;10.50;2.83;;;8.70;99.90;;;;;;6214026;23;20036;-78
2022/09/21 06:04:24;;;;;;;8.38;1.75;;;8.70;99.90;;;;;;6214342;23;20024;-79
2022/09/21 06:06:51;;;;;;;5.75;1.50;;;8.80;99.90;;;;;;6214369;23;20024;-77
2022/09/21 06:09:19;;;;;;;5.10;1.83;;;8.80;99.90;;;;;;6214119;23;20024;-77
2022/09/21 06:11:46;;;;;;;5.90;1.80;;;8.90;99.90;;;;;;6212960;23;20029;-78
2022/09/21 06:14:12;;;;;;;8.80;1.98;;;8.90;99.90;;;;;;6211988;23;20484;-77
2022/09/21 06:16:42;;;;;;;9.57;2.38;;;9.00;99.90;;;;;;6187326;23;20021;-77
2022/09/21 06:19:11;;;;;;;5.50;2.63;;;9.10;99.90;;;;;;6212316;23;20047;-77
2022/09/21 06:21:37;;;;;;;9.77;3.10;;;9.30;99.90;;;;;;6213768;23;20028;-77
2022/09/21 06:24:03;;;;;;;16.15;4.53;;;9.40;99.90;;;;;;6212762;23;20078;-77
2022/09/21 06:26:29;;;;;;;9.27;2.65;;;9.50;99.90;;;;;;6212071;23;20114;-77
2022/09/21 06:28:55;;;;;;;8.80;3.30;;;9.60;99.90;;;;;;6213490;23;20029;-78
2022/09/21 06:31:22;;;;;;;13.13;3.20;;;9.80;99.90;;;;;;6213519;23;20029;-78
2022/09/21 06:33:47;;;;;;;13.48;2.50;;;9.80;99.90;;;;;;6213942;23;20079;-78
2022/09/21 06:36:16;;;;;;;7.97;2.75;;;9.90;99.90;;;;;;6211826;23;20411;-78
2022/09/21 06:38:42;;;;;;;10.55;3.30;;;10.00;99.90;;;;;;6214753;23;20024;-78
2022/09/21 06:41:07;;;;;;;11.32;3.28;;;10.10;99.90;;;;;;6212132;23;20437;-78
2022/09/21 06:43:33;;;;;;;10.77;3.00;;;10.20;99.90;;;;;;6211903;23;20029;-79
2022/09/21 06:46:01;;;;;;;7.53;2.47;;;10.20;99.90;;;;;;6211911;23;20024;-77
2022/09/21 06:48:28;;;;;;;7.38;2.70;;;10.30;99.90;;;;;;6211635;23;20036;-77
2022/09/21 06:50:59;;;;;;;9.43;2.95;;;10.40;99.90;;;;;;6213248;23;20099;-77
2022/09/21 06:53:26;;;;;;;10.48;3.10;;;10.50;99.90;;;;;;6214344;23;20020;-77
2022/09/21 06:55:52;;;;;;;11.68;3.70;;;10.60;99.90;;;;;;6214109;23;20028;-77
2022/09/21 06:58:18;;;;;;;10.77;3.20;;;10.80;99.90;;;;;;6213081;23;20059;-77
2022/09/21 07:00:45;;;;;;;10.48;3.72;;;10.90;99.90;;;;;;6213537;23;20024;-77
2022/09/21 07:03:14;;;;;;;9.73;3.15;;;11.10;99.90;;;;;;6211631;23;20028;-78
2022/09/21 07:05:45;;;;;;;10.55;3.15;;;11.30;99.90;;;;;;6212798;23;20032;-77
2022/09/21 07:08:11;;;;;;;10.13;2.60;;;11.50;99.90;;;;;;6211425;23;20021;-79
2022/09/21 07:10:37;;;;;;;10.50;2.90;;;11.70;99.90;;;;;;6213326;23;20031;-79
2022/09/21 07:13:04;;;;;;;5.78;2.05;;;11.80;99.90;;;;;;6212798;23;20724;-78
2022/09/21 07:15:31;;;;;;;9.13;2.80;;;11.90;99.90;;;;;;6213274;23;20023;-79
2022/09/21 07:17:57;;;;;;;8.98;3.60;;;12.10;99.90;;;;;;6213594;23;20345;-78
2022/09/21 07:20:23;;;;;;;6.90;2.25;;;12.20;99.90;;;;;;6213553;23;20031;-78
2022/09/21 07:22:49;;;;;;;13.48;3.60;;;12.40;99.90;;;;;;6213699;23;20400;-78
2022/09/21 07:25:15;;;;;;;9.93;2.08;;;12.50;99.90;;;;;;6213443;23;20027;-79
2022/09/21 07:27:41;;;;;;;10.60;2.30;;;12.50;99.90;;;;;;6213421;23;20103;-78
2022/09/21 07:30:10;;;;;;;9.93;2.45;;;12.70;99.90;;;;;;6211216;23;20028;-77
2022/09/21 07:32:36;;;;;;;10.93;2.90;;;12.80;99.90;;;;;;6211268;23;20023;-79
2022/09/21 07:35:02;;;;;;;9.35;2.97;;;12.90;99.90;;;;;;6213246;23;20024;-78
2022/09/21 07:37:29;;;;;;;7.38;2.60;;;13.10;99.90;;;;;;6211432;23;20461;-79
2022/09/21 07:39:55;;;;;;;8.10;2.17;;;13.20;99.90;;;;;;6211242;23;20032;-76
2022/09/21 07:42:23;;;;;;;9.35;2.20;;;13.40;99.90;;;;;;6212713;23;20027;-79
2022/09/21 07:44:49;;;;;;;11.65;2.30;;;13.40;99.90;;;;;;6214031;23;20579;-77
2022/09/21 07:47:16;;;;;;;8.35;2.10;;;13.40;99.90;;;;;;6211284;23;20020;-80
2022/09/21 07:49:42;;;;;;;6.90;1.88;;;13.40;99.90;;;;;;6212891;23;20035;-79
2022/09/21 07:52:08;;;;;;;7.22;2.05;;;13.50;99.90;;;;;;6213023;23;20337;-79
2022/09/21 07:54:35;;;;;;;9.48;1.90;;;13.60;99.90;;;;;;6213355;23;20406;-78
2022/09/21 07:59:46;;;;;;;5.07;2.20;;;13.60;99.90;;;;;;6212512;23;20043;-79
2022/09/21 08:02:12;;;;;;;7.03;2.00;;;13.70;99.90;;;;;;6211368;23;20016;-79
2022/09/21 08:04:38;;;;;;;11.98;2.30;;;13.80;99.90;;;;;;6187854;23;20574;-79
2022/09/21 08:07:04;;;;;;;10.35;2.22;;;13.80;99.90;;;;;;6211054;23;20032;-79
2022/09/21 08:09:30;;;;;;;7.00;2.25;;;13.80;99.90;;;;;;6210848;23;20033;-79
2022/09/21 08:11:57;;;;;;;7.20;1.90;;;13.80;99.90;;;;;;6213054;23;20036;-79
2022/09/21 08:14:23;;;;;;;8.93;2.30;;;13.80;99.90;;;;;;6212728;23;20472;-79
2022/09/21 08:16:49;;;;;;;7.93;1.83;;;14.00;99.90;;;;;;6211895;23;20020;-79
2022/09/21 08:19:16;;;;;;;9.18;1.80;;;14.20;99.90;;;;;;6212895;23;20031;-79
2022/09/21 08:21:42;;;;;;;8.70;1.88;;;14.30;99.90;;;;;;6186014;23;20031;-79
2022/09/21 08:24:09;;;;;;;7.95;1.80;;;14.40;99.90;;;;;;6210877;23;20021;-80
2022/09/21 08:26:35;;;;;;;8.27;1.70;;;14.50;99.90;;;;;;6212868;23;20032;-79
2022/09/21 08:29:02;;;;;;;9.75;2.33;;;14.60;99.90;;;;;;6211296;23;20054;-79
2022/09/21 08:31:29;;;;;;;8.52;2.67;;;14.70;99.90;;;;;;6213331;23;20322;-80
2022/09/21 08:33:56;;;;;;;7.88;1.70;;;14.90;99.90;;;;;;6212730;23;20503;-79
2022/09/21 08:36:22;;;;;;;6.28;1.40;;;15.00;99.90;;;;;;6210984;23;20074;-80
2022/09/21 08:38:49;;;;;;;8.50;1.80;;;15.20;99.90;;;;;;6211093;23;20484;-79
2022/09/21 08:41:19;;;;;;;10.80;1.65;;;15.30;99.90;;;;;;6211344;23;20052;-79
2022/09/21 08:43:52;;;;;;;6.65;1.60;;;15.50;99.90;;;;;;6217089;23;20055;-80
2022/09/21 08:46:26;;;;;;;6.28;1.63;;;15.70;99.90;;;;;;6214400;23;20020;-81
2022/09/21 08:49:17;;;;;;;7.40;1.90;;;15.90;99.90;;;;;;6186322;23;20032;-78
2022/09/21 08:51:55;;;;;;;5.95;1.17;;;16.00;99.90;;;;;;6211802;23;20256;-82
2022/09/21 08:54:45;;;;;;;7.35;1.33;;;16.20;99.90;;;;;;6212800;23;20024;-79
2022/09/21 08:57:16;;;;;;;4.85;0.88;;;16.40;99.90;;;;;;6195843;23;20052;-81
2022/09/21 08:59:45;;;;;;;12.48;1.88;;;16.40;99.90;;;;;;6214667;23;20031;-79
2022/09/21 09:02:37;;;;;;;6.22;1.13;;;16.50;99.90;;;;;;6210799;23;20021;-81
2022/09/21 09:05:11;;;;;;;9.57;1.20;;;16.70;99.90;;;;;;6212761;23;20077;-81
2022/09/21 09:08:08;;;;;;;7.85;1.27;;;16.90;99.90;;;;;;6212840;23;20078;-79
2022/09/21 09:10:39;;;;;;;5.50;1.05;;;17.10;99.90;;;;;;6211280;23;20031;-81
2022/09/21 09:13:24;;;;;;;10.13;1.40;;;17.10;99.90;;;;;;6185562;23;20028;-80
2022/09/21 09:16:23;;;;;;;9.13;1.08;;;17.10;99.90;;;;;;6212430;23;20462;-78
2022/09/21 09:19:21;;;;;;;9.52;1.25;;;17.30;99.90;;;;;;6214357;23;20027;-79
2022/09/21 09:21:47;;;;;;;4.90;0.90;;;17.50;99.90;;;;;;6214604;23;20020;-79
2022/09/21 09:24:55;;;;;;;7.05;1.40;;;17.60;99.90;;;;;;6214786;23;20116;-80
2022/09/21 09:27:31;;;;;;;8.82;1.27;;;17.70;99.90;;;;;;6093052;23;20767;-78
2022/09/21 09:30:16;;;;;;;4.25;1.10;;;18.00;99.90;;;;;;6092873;23;20026;-80
2022/09/21 09:33:05;;;;;;;7.22;1.30;;;18.10;99.90;;;;;;6176672;23;20460;-78
2022/09/21 09:35:44;;;;;;;6.85;1.23;;;18.00;99.20;;;;;;6214617;23;20060;-79
2022/09/21 09:38:23;;;;;;;5.00;1.48;;;18.30;99.80;;;;;;6212653;23;20491;-79
2022/09/21 09:40:49;;;;;;;7.72;1.13;;;18.50;99.30;;;;;;6216603;23;20318;-80
2022/09/21 09:43:54;;;;;;;8.05;1.50;;;18.50;99.10;;;;;;6214997;23;20079;-79
2022/09/21 09:46:33;;;;;;;6.53;1.13;;;18.50;98.50;;;;;;6215125;23;20032;-80
2022/09/21 09:49:36;;;;;;;7.40;1.00;;;18.70;98.50;;;;;;6212819;23;20032;-79
2022/09/21 09:52:04;;;;;;;9.43;1.00;;;19.00;97.70;;;;;;6212846;23;20062;-80
2022/09/21 09:54:33;;;;;;;6.47;1.20;;;18.80;97.50;;;;;;6214361;23;20074;-82
2022/09/21 09:57:03;;;;;;;6.32;1.25;;;19.20;97.30;;;;;;6212264;23;20083;-82
2022/09/21 09:59:52;;;;;;;11.57;1.90;;;19.20;96.70;;;;;;6187788;23;20020;-78
2022/09/21 10:02:20;;;;;;;5.70;1.13;;;19.40;95.90;;;;;;6215434;23;20378;-82
2022/09/21 10:05:07;;;;;;;6.85;1.05;;;19.70;97.00;;;;;;6212483;23;20107;-82
2022/09/21 10:07:46;;;;;;;4.82;1.08;;;20.00;96.00;;;;;;6213720;23;20029;-82
2022/09/21 10:10:39;;;;;;;5.97;1.15;;;20.30;96.00;;;;;;6212069;23;20345;-83
2022/09/21 10:13:04;;;;;;;10.60;1.30;;;20.50;95.40;;;;;;6211975;23;20020;-82
2022/09/21 10:15:31;;;;;;;9.13;1.13;;;20.70;95.60;;;;;;6213541;23;20032;-80
2022/09/21 10:18:12;;;;;;;8.00;1.38;;;20.80;94.70;;;;;;6213506;23;20028;-78
2022/09/21 10:20:38;;;;;;;7.32;1.55;;;20.90;93.30;;;;;;6214513;23;20084;-79
2022/09/21 10:23:04;;;;;;;6.45;1.20;;;21.00;94.30;;;;;;6214223;23;20032;-80
2022/09/21 10:25:30;;;;;;;5.63;1.27;;;20.90;93.90;;;;;;6212217;23;20123;-81
2022/09/21 10:27:56;;;;;;;7.35;0.77;;;21.40;93.60;;;;;;6211597;23;20124;-82
2022/09/21 10:30:40;;;;;;;5.95;1.17;;;21.50;93.40;;;;;;6213738;23;20318;-80
2022/09/21 10:33:19;;;;;;;5.13;0.95;;;21.30;93.40;;;;;;6211952;23;20055;-81
2022/09/21 10:35:50;;;;;;;7.18;1.35;;;21.10;92.50;;;;;;6211874;23;20020;-79
2022/09/21 10:38:18;;;;;;;8.63;1.42;;;20.50;93.00;;;;;;6212496;23;20514;-82
2022/09/21 10:40:46;;;;;;;5.80;0.85;;;20.50;93.70;;;;;;6213140;23;20454;-79
2022/09/21 10:43:24;;;;;;;7.95;1.10;;;20.80;93.20;;;;;;6212006;23;20458;-78
2022/09/21 10:45:54;;;;;;;4.47;1.10;;;21.20;92.80;;;;;;6186704;23;20357;-78
2022/09/21 10:48:22;;;;;;;8.05;1.30;;;21.40;93.00;;;;;;6212962;23;20029;-77
2022/09/21 10:50:50;;;;;;;7.32;1.40;;;21.30;92.70;;;;;;6213480;23;20095;-78
2022/09/21 10:53:28;;;;;;;8.18;1.83;;;21.60;92.50;;;;;;6212392;23;20104;-76
2022/09/21 10:56:03;;;;;;;7.15;0.90;;;21.90;92.10;;;;;;6211560;23;20036;-77
2022/09/21 10:58:31;;;;;;;5.82;1.02;;;22.40;91.70;;;;;;6211806;23;20036;-79
2022/09/21 11:01:20;;;;;;;7.18;1.00;;;22.70;91.30;;;;;;6214432;23;20028;-77
2022/09/21 11:04:13;;;;;;;5.65;1.13;;;22.90;90.60;;;;;;6211935;23;20125;-79
2022/09/21 11:06:47;;;;;;;8.35;1.13;;;22.50;90.40;;;;;;6212453;23;20457;-77
2022/09/21 11:09:24;;;;;;;;;;;21.90;90.90;;;;;;6213485;23;20056;-77
2022/09/21 11:12:22;;;;;;;5.13;1.00;;;21.80;89.50;;;;;;6211983;23;19920;-82
2022/09/21 11:14:51;;;;;;;5.88;0.93;;;22.30;90.00;;;;;;6204583;23;20016;-79
2022/09/21 11:17:32;;;;;;;11.07;1.20;;;22.20;89.80;;;;;;6211529;23;20458;-82
2022/09/21 11:20:24;;;;;;;5.70;1.20;;;22.10;90.20;;;;;;6213082;23;20021;-79
2022/09/21 11:23:02;;;;;;;6.10;1.15;;;21.90;90.50;;;;;;6207200;23;20028;-80
2022/09/21 11:25:35;;;;;;;8.20;0.85;;;22.70;91.40;;;;;;6213005;23;20031;-78
2022/09/21 11:28:39;;;;;;;8.00;1.52;;;23.40;89.30;;;;;;6186324;23;20115;-83
2022/09/21 11:34:24;;;;;;;4.80;1.15;;;23.30;88.60;;;;;;6239680;22;20031;-77
2022/09/21 11:37:09;;;;;;;6.55;1.42;;;23.70;84.30;;;;;;6234214;22;20028;-78
2022/09/21 11:39:57;;;;;;;6.43;1.13;;;23.80;85.60;;;;;;6274421;22;20020;-76
2022/09/21 11:42:50;;;;;;;6.80;1.00;;;24.10;83.00;;;;;;6274339;22;20100;-77
2022/09/21 11:45:48;;;;;;;8.48;1.00;;;23.90;85.20;;;;;;6201114;22;20062;-77
2022/09/21 11:49:06;;;;;;;6.28;1.08;;;23.90;82.80;;;;;;6222063;22;20019;-77
2022/09/21 11:51:40;;;;;;;5.20;1.20;;;24.80;83.50;;;;;;6246796;22;20340;-77
2022/09/21 11:54:24;;;;;;;4.60;0.93;;;25.50;80.00;;;;;;6246348;22;20398;-76
2022/09/21 11:57:18;;;;;;;7.97;1.40;;;26.00;78.40;;;;;;6274042;22;20023;-76
2022/09/21 12:00:05;;;;;;;4.63;0.80;;;26.50;76.60;;;;;;6246475;22;20031;-78
2022/09/21 12:02:48;;;;;;;5.82;1.20;;;27.10;75.80;;;;;;6246973;22;20020;-77
2022/09/21 12:05:56;;;;;;;6.05;0.80;;;27.70;70.70;;;;;;6221405;22;20034;-77
2022/09/21 12:08:27;;;;;;;7.72;1.00;;;28.10;72.30;;;;;;6254814;22;20055;-79
2022/09/21 12:11:05;;;;;;;3.65;1.00;;;28.80;67.70;;;;;;6273798;22;20033;-81
2022/09/21 12:13:49;;;;;;;4.22;0.68;;;28.80;67.50;;;;;;6246462;22;20028;-79
2022/09/21 12:16:26;;;;;;;9.30;1.25;;;29.30;63.90;;;;;;6274263;22;20081;-75
2022/09/21 12:19:03;;;;;;;4.50;1.13;;;29.30;63.30;;;;;;6246965;22;20337;-75
2022/09/21 12:21:44;;;;;;;5.32;0.90;;;30.00;62.60;;;;;;6274650;22;20023;-76
2022/09/21 12:24:20;;;;;;;3.83;0.98;;;30.40;60.50;;;;;;6247407;22;20107;-77
2022/09/21 12:26:52;;;;;;;2.97;0.80;;;30.80;59.00;;;;;;6273887;22;20030;-77
2022/09/21 12:29:21;;;;;;;6.18;1.10;;;31.30;57.60;;;;;;6246415;22;20020;-76
2022/09/21 12:32:00;;;;;;;5.95;1.88;;;30.60;53.20;;;;;;6246363;22;20078;-75
2022/09/21 12:34:33;;;;;;;4.32;0.88;;;29.00;55.00;;;;;;6246456;22;20024;-75
2022/09/21 12:37:22;;;;;;;6.40;1.00;;;27.70;57.20;;;;;;6274301;22;20019;-75
2022/09/21 12:40:00;;;;;;;7.18;1.13;;;26.50;58.40;;;;;;6271920;22;20035;-77
2022/09/21 12:42:47;;;;;;;3.85;0.60;;;25.60;60.00;;;;;;6272949;22;20669;-77
2022/09/21 12:45:32;;;;;;;4.53;0.80;;;24.60;61.50;;;;;;6273120;22;20028;-77
2022/09/21 12:48:07;;;;;;;4.35;0.80;;;24.10;63.30;;;;;;6272409;22;20019;-78
2022/09/21 12:50:53;;;;;;;3.85;0.65;;;24.70;64.80;;;;;;6274856;22;20386;-78
2022/09/21 12:53:29;;;;;;;5.50;0.95;;;24.80;62.00;;;;;;6248332;22;20028;-77
2022/09/21 12:56:05;;;;;;;4.47;0.85;;;25.40;65.80;;;;;;6273751;22;20032;-77
2022/09/21 12:58:37;;;;;;;5.13;0.80;;;25.90;63.30;;;;;;6273744;22;20020;-80
2022/09/21 13:01:28;;;;;;;6.30;0.75;;;25.30;61.80;;;;;;6276513;22;20356;-78
2022/09/21 13:04:37;;;;;;;6.80;1.25;;;24.80;62.90;;;;;;6275217;22;20130;-77
2022/09/21 13:07:18;;;;;;;5.47;0.93;;;24.40;64.30;;;;;;6228475;22;20038;-78
2022/09/21 13:09:45;;;;;;;4.72;0.95;;;25.60;64.00;;;;;;6275428;22;20020;-77
2022/09/21 13:12:20;;;;;;;5.80;0.80;;;26.70;62.90;;;;;;6275644;22;20330;-77
2022/09/21 13:14:59;;;;;;;5.53;1.05;;;26.40;62.00;;;;;;6275942;22;20034;-76
2022/09/21 13:17:30;;;;;;;4.75;0.80;;;25.50;61.50;;;;;;6274042;22;20020;-77
2022/09/21 13:20:02;;;;;;;6.63;1.10;;;24.80;63.50;;;;;;6274028;22;20059;-76
2022/09/21 13:22:34;;;;;;;8.30;1.88;;;24.30;64.90;;;;;;6273599;22;20490;-76
2022/09/21 13:25:05;;;;;;;3.63;0.80;;;23.90;66.30;;;;;;6275551;22;20031;-77
2022/09/21 13:28:12;;;;;;;4.40;0.80;;;23.50;67.90;;;;;;6275574;22;20023;-76
2022/09/21 13:30:44;;;;;;;6.32;0.90;;;23.10;68.00;;;;;;6275316;22;20023;-76
2022/09/21 13:33:31;;;;;;;5.50;1.00;;;22.70;69.20;;;;;;6273517;22;20379;-76